sensor_id;sensor_type;location;lat;lon;timestamp;P1;durP1;ratioP1;P2;durP2;ratioP2
42118;SDS011;27783;42.782;23.274;2023-08-20T00:01:45;7.35;;;6.18;;
42118;SDS011;27783;42.782;23.274;2023-08-20T00:04:11;6.55;;;5.95;;
42118;SDS011;27783;42.782;23.274;2023-08-20T00:09:05;6.68;;;6.18;;
42118;SDS011;27783;42.782;23.274;2023-08-20T00:11:34;9.00;;;7.78;;
42118;SDS011;27783;42.782;23.274;2023-08-20T00:14:03;7.18;;;6.57;;
42118;SDS011;27783;42.782;23.274;2023-08-20T00:16:30;7.55;;;6.85;;
42118;SDS011;27783;42.782;23.274;2023-08-20T00:19:05;7.05;;;6.55;;
42118;SDS011;27783;42.782;23.274;2023-08-20T00:21:33;6.97;;;6.38;;
42118;SDS011;27783;42.782;23.274;2023-08-20T00:24:00;7.40;;;6.57;;
42118;SDS011;27783;42.782;23.274;2023-08-20T00:26:26;8.57;;;7.20;;
42118;SDS011;27783;42.782;23.274;2023-08-20T00:28:51;6.95;;;6.32;;
42118;SDS011;27783;42.782;23.274;2023-08-20T00:31:18;7.88;;;7.18;;
42118;SDS011;27783;42.782;23.274;2023-08-20T00:33:43;6.68;;;6.18;;
42118;SDS011;27783;42.782;23.274;2023-08-20T00:36:08;7.50;;;6.90;;
42118;SDS011;27783;42.782;23.274;2023-08-20T00:38:34;8.93;;;5.93;;
42118;SDS011;27783;42.782;23.274;2023-08-20T00:41:00;8.32;;;7.47;;
42118;SDS011;27783;42.782;23.274;2023-08-20T00:43:25;8.07;;;7.28;;
42118;SDS011;27783;42.782;23.274;2023-08-20T00:45:52;8.30;;;6.70;;
42118;SDS011;27783;42.782;23.274;2023-08-20T00:48:20;7.38;;;6.75;;
42118;SDS011;27783;42.782;23.274;2023-08-20T00:50:46;8.25;;;7.63;;
42118;SDS011;27783;42.782;23.274;2023-08-20T00:53:13;8.30;;;7.57;;
42118;SDS011;27783;42.782;23.274;2023-08-20T00:55:40;7.72;;;6.80;;
42118;SDS011;27783;42.782;23.274;2023-08-20T00:58:17;7.57;;;6.88;;
42118;SDS011;27783;42.782;23.274;2023-08-20T01:00:43;8.05;;;7.30;;
42118;SDS011;27783;42.782;23.274;2023-08-20T01:03:10;8.02;;;7.40;;
42118;SDS011;27783;42.782;23.274;2023-08-20T01:05:39;8.50;;;7.07;;
42118;SDS011;27783;42.782;23.274;2023-08-20T01:09:01;8.25;;;7.55;;
42118;SDS011;27783;42.782;23.274;2023-08-20T01:11:12;11.10;;;8.68;;
42118;SDS011;27783;42.782;23.274;2023-08-20T01:13:49;8.88;;;8.10;;
42118;SDS011;27783;42.782;23.274;2023-08-20T01:16:19;9.20;;;8.50;;
42118;SDS011;27783;42.782;23.274;2023-08-20T01:18:46;9.82;;;8.95;;
42118;SDS011;27783;42.782;23.274;2023-08-20T01:24:05;9.00;;;8.30;;
42118;SDS011;27783;42.782;23.274;2023-08-20T01:29:31;8.15;;;7.55;;
42118;SDS011;27783;42.782;23.274;2023-08-20T01:31:58;8.65;;;7.95;;
42118;SDS011;27783;42.782;23.274;2023-08-20T01:34:24;8.75;;;7.53;;
42118;SDS011;27783;42.782;23.274;2023-08-20T01:36:49;7.70;;;7.10;;
42118;SDS011;27783;42.782;23.274;2023-08-20T01:39:15;9.30;;;8.23;;
42118;SDS011;27783;42.782;23.274;2023-08-20T01:41:43;8.60;;;7.90;;
42118;SDS011;27783;42.782;23.274;2023-08-20T01:44:10;8.65;;;7.60;;
42118;SDS011;27783;42.782;23.274;2023-08-20T01:46:37;8.10;;;7.30;;
42118;SDS011;27783;42.782;23.274;2023-08-20T01:49:04;7.55;;;7.05;;
42118;SDS011;27783;42.782;23.274;2023-08-20T01:51:31;8.82;;;7.50;;
42118;SDS011;27783;42.782;23.274;2023-08-20T01:56:29;7.50;;;6.87;;
42118;SDS011;27783;42.782;23.274;2023-08-20T01:58:55;8.20;;;7.60;;
42118;SDS011;27783;42.782;23.274;2023-08-20T02:01:24;7.82;;;7.22;;
42118;SDS011;27783;42.782;23.274;2023-08-20T02:03:51;8.35;;;7.35;;
42118;SDS011;27783;42.782;23.274;2023-08-20T02:06:16;8.13;;;7.32;;
42118;SDS011;27783;42.782;23.274;2023-08-20T02:09:01;9.43;;;8.20;;
42118;SDS011;27783;42.782;23.274;2023-08-20T02:11:28;8.50;;;7.70;;
42118;SDS011;27783;42.782;23.274;2023-08-20T02:14:00;8.88;;;8.15;;
42118;SDS011;27783;42.782;23.274;2023-08-20T02:19:08;8.45;;;7.70;;
42118;SDS011;27783;42.782;23.274;2023-08-20T02:21:33;7.00;;;6.40;;
42118;SDS011;27783;42.782;23.274;2023-08-20T02:23:59;8.27;;;7.57;;
42118;SDS011;27783;42.782;23.274;2023-08-20T02:26:26;9.07;;;8.27;;
42118;SDS011;27783;42.782;23.274;2023-08-20T02:28:51;11.43;;;6.80;;
42118;SDS011;27783;42.782;23.274;2023-08-20T02:31:18;11.18;;;7.40;;
42118;SDS011;27783;42.782;23.274;2023-08-20T02:33:44;8.32;;;7.60;;
42118;SDS011;27783;42.782;23.274;2023-08-20T02:38:49;8.13;;;7.53;;
42118;SDS011;27783;42.782;23.274;2023-08-20T02:41:16;8.75;;;7.90;;
42118;SDS011;27783;42.782;23.274;2023-08-20T02:43:43;8.20;;;7.60;;
42118;SDS011;27783;42.782;23.274;2023-08-20T02:48:43;7.28;;;6.78;;
42118;SDS011;27783;42.782;23.274;2023-08-20T02:51:14;8.27;;;7.63;;
42118;SDS011;27783;42.782;23.274;2023-08-20T02:53:39;9.18;;;8.30;;
42118;SDS011;27783;42.782;23.274;2023-08-20T02:56:05;7.90;;;7.28;;
42118;SDS011;27783;42.782;23.274;2023-08-20T02:58:32;8.07;;;7.38;;
42118;SDS011;27783;42.782;23.274;2023-08-20T03:00:59;8.73;;;8.02;;
42118;SDS011;27783;42.782;23.274;2023-08-20T03:03:25;7.55;;;6.95;;
42118;SDS011;27783;42.782;23.274;2023-08-20T03:05:50;8.32;;;7.72;;
42118;SDS011;27783;42.782;23.274;2023-08-20T03:08:28;8.18;;;7.57;;
42118;SDS011;27783;42.782;23.274;2023-08-20T03:10:56;8.90;;;7.57;;
42118;SDS011;27783;42.782;23.274;2023-08-20T03:13:23;7.53;;;6.97;;
42118;SDS011;27783;42.782;23.274;2023-08-20T03:15:48;7.70;;;7.10;;
42118;SDS011;27783;42.782;23.274;2023-08-20T03:18:13;8.43;;;7.82;;
42118;SDS011;27783;42.782;23.274;2023-08-20T03:20:40;11.48;;;8.70;;
42118;SDS011;27783;42.782;23.274;2023-08-20T03:25:58;9.20;;;8.30;;
42118;SDS011;27783;42.782;23.274;2023-08-20T03:28:24;9.85;;;8.73;;
42118;SDS011;27783;42.782;23.274;2023-08-20T03:30:50;8.80;;;8.10;;
42118;SDS011;27783;42.782;23.274;2023-08-20T03:33:15;8.93;;;8.02;;
42118;SDS011;27783;42.782;23.274;2023-08-20T03:35:42;8.63;;;7.82;;
42118;SDS011;27783;42.782;23.274;2023-08-20T03:38:08;11.82;;;7.95;;
42118;SDS011;27783;42.782;23.274;2023-08-20T03:40:33;9.45;;;8.73;;
42118;SDS011;27783;42.782;23.274;2023-08-20T03:42:59;10.85;;;8.63;;
42118;SDS011;27783;42.782;23.274;2023-08-20T03:45:27;8.82;;;8.18;;
42118;SDS011;27783;42.782;23.274;2023-08-20T03:47:54;12.70;;;8.48;;
42118;SDS011;27783;42.782;23.274;2023-08-20T03:50:20;10.13;;;8.80;;
42118;SDS011;27783;42.782;23.274;2023-08-20T03:52:45;11.38;;;8.88;;
42118;SDS011;27783;42.782;23.274;2023-08-20T03:55:11;9.80;;;9.00;;
42118;SDS011;27783;42.782;23.274;2023-08-20T03:57:39;8.63;;;7.93;;
42118;SDS011;27783;42.782;23.274;2023-08-20T04:02:51;10.05;;;9.10;;
42118;SDS011;27783;42.782;23.274;2023-08-20T04:05:17;10.15;;;8.38;;
42118;SDS011;27783;42.782;23.274;2023-08-20T04:07:42;8.88;;;8.07;;
42118;SDS011;27783;42.782;23.274;2023-08-20T04:10:19;9.43;;;8.68;;
42118;SDS011;27783;42.782;23.274;2023-08-20T04:12:47;8.45;;;7.75;;
42118;SDS011;27783;42.782;23.274;2023-08-20T04:15:18;8.45;;;7.75;;
42118;SDS011;27783;42.782;23.274;2023-08-20T04:17:46;8.48;;;7.68;;
42118;SDS011;27783;42.782;23.274;2023-08-20T04:20:14;8.73;;;7.97;;
42118;SDS011;27783;42.782;23.274;2023-08-20T04:22:40;8.98;;;8.27;;
42118;SDS011;27783;42.782;23.274;2023-08-20T04:25:07;8.45;;;7.88;;
42118;SDS011;27783;42.782;23.274;2023-08-20T04:30:03;9.73;;;9.02;;
42118;SDS011;27783;42.782;23.274;2023-08-20T04:32:38;9.15;;;8.35;;
42118;SDS011;27783;42.782;23.274;2023-08-20T04:35:05;11.90;;;7.88;;
42118;SDS011;27783;42.782;23.274;2023-08-20T04:37:31;10.10;;;8.25;;
42118;SDS011;27783;42.782;23.274;2023-08-20T04:40:10;9.63;;;8.63;;
42118;SDS011;27783;42.782;23.274;2023-08-20T04:42:38;10.43;;;9.63;;
42118;SDS011;27783;42.782;23.274;2023-08-20T04:45:14;9.30;;;8.60;;
42118;SDS011;27783;42.782;23.274;2023-08-20T04:47:44;9.25;;;8.55;;
42118;SDS011;27783;42.782;23.274;2023-08-20T04:50:11;9.07;;;8.30;;
42118;SDS011;27783;42.782;23.274;2023-08-20T04:52:37;9.85;;;9.05;;
42118;SDS011;27783;42.782;23.274;2023-08-20T04:55:02;9.35;;;8.65;;
42118;SDS011;27783;42.782;23.274;2023-08-20T04:57:35;9.68;;;8.88;;
42118;SDS011;27783;42.782;23.274;2023-08-20T05:00:09;12.02;;;10.98;;
42118;SDS011;27783;42.782;23.274;2023-08-20T05:02:36;11.07;;;10.25;;
42118;SDS011;27783;42.782;23.274;2023-08-20T05:05:02;14.77;;;13.50;;
42118;SDS011;27783;42.782;23.274;2023-08-20T05:07:29;11.20;;;10.25;;
42118;SDS011;27783;42.782;23.274;2023-08-20T05:09:54;11.52;;;10.55;;
42118;SDS011;27783;42.782;23.274;2023-08-20T05:12:21;12.23;;;11.00;;
42118;SDS011;27783;42.782;23.274;2023-08-20T05:14:47;13.05;;;11.80;;
42118;SDS011;27783;42.782;23.274;2023-08-20T05:17:13;12.00;;;11.10;;
42118;SDS011;27783;42.782;23.274;2023-08-20T05:19:57;12.27;;;11.00;;
42118;SDS011;27783;42.782;23.274;2023-08-20T05:22:22;12.07;;;10.88;;
42118;SDS011;27783;42.782;23.274;2023-08-20T05:24:54;12.45;;;10.65;;
42118;SDS011;27783;42.782;23.274;2023-08-20T05:27:20;10.52;;;9.65;;
42118;SDS011;27783;42.782;23.274;2023-08-20T05:29:45;10.98;;;9.88;;
42118;SDS011;27783;42.782;23.274;2023-08-20T05:32:14;10.05;;;9.15;;
42118;SDS011;27783;42.782;23.274;2023-08-20T05:34:42;9.93;;;8.85;;
42118;SDS011;27783;42.782;23.274;2023-08-20T05:37:12;10.05;;;9.25;;
42118;SDS011;27783;42.782;23.274;2023-08-20T05:39:42;8.68;;;7.88;;
42118;SDS011;27783;42.782;23.274;2023-08-20T05:42:15;11.02;;;9.93;;
42118;SDS011;27783;42.782;23.274;2023-08-20T05:44:40;9.35;;;8.60;;
42118;SDS011;27783;42.782;23.274;2023-08-20T05:47:07;9.52;;;8.82;;
42118;SDS011;27783;42.782;23.274;2023-08-20T05:49:33;9.82;;;8.52;;
42118;SDS011;27783;42.782;23.274;2023-08-20T05:52:15;9.75;;;8.90;;
42118;SDS011;27783;42.782;23.274;2023-08-20T05:54:41;9.65;;;8.80;;
42118;SDS011;27783;42.782;23.274;2023-08-20T05:57:08;11.07;;;9.73;;
42118;SDS011;27783;42.782;23.274;2023-08-20T05:59:34;9.45;;;8.55;;
42118;SDS011;27783;42.782;23.274;2023-08-20T06:02:01;9.30;;;8.43;;
42118;SDS011;27783;42.782;23.274;2023-08-20T06:04:35;8.40;;;7.70;;
42118;SDS011;27783;42.782;23.274;2023-08-20T06:07:07;8.93;;;7.55;;
42118;SDS011;27783;42.782;23.274;2023-08-20T06:09:41;8.85;;;8.15;;
42118;SDS011;27783;42.782;23.274;2023-08-20T06:12:07;12.82;;;9.35;;
42118;SDS011;27783;42.782;23.274;2023-08-20T06:14:33;8.35;;;7.55;;
42118;SDS011;27783;42.782;23.274;2023-08-20T06:16:58;8.75;;;8.05;;
42118;SDS011;27783;42.782;23.274;2023-08-20T06:19:24;11.25;;;8.38;;
42118;SDS011;27783;42.782;23.274;2023-08-20T06:21:51;8.07;;;7.50;;
42118;SDS011;27783;42.782;23.274;2023-08-20T06:24:16;8.57;;;7.93;;
42118;SDS011;27783;42.782;23.274;2023-08-20T06:26:43;9.20;;;8.50;;
42118;SDS011;27783;42.782;23.274;2023-08-20T06:31:40;8.88;;;8.00;;
42118;SDS011;27783;42.782;23.274;2023-08-20T06:34:11;7.30;;;6.70;;
42118;SDS011;27783;42.782;23.274;2023-08-20T06:36:38;7.00;;;6.43;;
42118;SDS011;27783;42.782;23.274;2023-08-20T06:39:04;7.97;;;7.28;;
42118;SDS011;27783;42.782;23.274;2023-08-20T06:41:30;7.78;;;7.18;;
42118;SDS011;27783;42.782;23.274;2023-08-20T06:43:56;7.82;;;7.00;;
42118;SDS011;27783;42.782;23.274;2023-08-20T06:46:24;7.40;;;6.70;;
42118;SDS011;27783;42.782;23.274;2023-08-20T06:48:50;7.25;;;6.57;;
42118;SDS011;27783;42.782;23.274;2023-08-20T06:51:19;6.65;;;6.05;;
42118;SDS011;27783;42.782;23.274;2023-08-20T06:53:59;6.95;;;6.32;;
42118;SDS011;27783;42.782;23.274;2023-08-20T06:56:29;6.68;;;6.18;;
42118;SDS011;27783;42.782;23.274;2023-08-20T06:58:56;7.03;;;6.43;;
42118;SDS011;27783;42.782;23.274;2023-08-20T07:01:30;9.27;;;7.18;;
42118;SDS011;27783;42.782;23.274;2023-08-20T07:03:56;6.47;;;6.00;;
42118;SDS011;27783;42.782;23.274;2023-08-20T07:06:39;9.38;;;6.13;;
42118;SDS011;27783;42.782;23.274;2023-08-20T07:09:24;7.55;;;6.85;;
42118;SDS011;27783;42.782;23.274;2023-08-20T07:11:50;7.25;;;6.43;;
42118;SDS011;27783;42.782;23.274;2023-08-20T07:14:19;8.35;;;6.80;;
42118;SDS011;27783;42.782;23.274;2023-08-20T07:16:45;7.15;;;6.55;;
42118;SDS011;27783;42.782;23.274;2023-08-20T07:19:12;7.45;;;6.85;;
42118;SDS011;27783;42.782;23.274;2023-08-20T07:21:38;7.18;;;6.47;;
42118;SDS011;27783;42.782;23.274;2023-08-20T07:24:05;12.10;;;6.28;;
42118;SDS011;27783;42.782;23.274;2023-08-20T07:26:32;30.98;;;28.33;;
42118;SDS011;27783;42.782;23.274;2023-08-20T07:28:58;9.18;;;8.38;;
42118;SDS011;27783;42.782;23.274;2023-08-20T07:31:31;10.75;;;9.90;;
42118;SDS011;27783;42.782;23.274;2023-08-20T07:34:06;8.18;;;6.65;;
42118;SDS011;27783;42.782;23.274;2023-08-20T07:36:31;5.60;;;5.10;;
42118;SDS011;27783;42.782;23.274;2023-08-20T07:38:57;5.45;;;4.95;;
42118;SDS011;27783;42.782;23.274;2023-08-20T07:41:22;8.00;;;5.95;;
42118;SDS011;27783;42.782;23.274;2023-08-20T07:43:50;5.45;;;5.05;;
42118;SDS011;27783;42.782;23.274;2023-08-20T07:46:26;6.10;;;5.60;;
42118;SDS011;27783;42.782;23.274;2023-08-20T07:48:52;5.97;;;5.55;;
42118;SDS011;27783;42.782;23.274;2023-08-20T07:51:21;5.82;;;5.30;;
42118;SDS011;27783;42.782;23.274;2023-08-20T07:53:46;6.57;;;5.03;;
42118;SDS011;27783;42.782;23.274;2023-08-20T07:56:13;8.35;;;4.25;;
42118;SDS011;27783;42.782;23.274;2023-08-20T07:58:40;5.13;;;4.13;;
42118;SDS011;27783;42.782;23.274;2023-08-20T08:01:05;4.90;;;4.13;;
42118;SDS011;27783;42.782;23.274;2023-08-20T08:03:32;5.73;;;3.97;;
42118;SDS011;27783;42.782;23.274;2023-08-20T08:05:58;5.28;;;3.95;;
42118;SDS011;27783;42.782;23.274;2023-08-20T08:08:23;3.65;;;3.30;;
42118;SDS011;27783;42.782;23.274;2023-08-20T08:10:53;4.22;;;3.88;;
42118;SDS011;27783;42.782;23.274;2023-08-20T08:13:20;6.40;;;3.08;;
42118;SDS011;27783;42.782;23.274;2023-08-20T08:15:52;5.20;;;3.63;;
42118;SDS011;27783;42.782;23.274;2023-08-20T08:18:18;3.13;;;2.85;;
42118;SDS011;27783;42.782;23.274;2023-08-20T08:20:53;4.03;;;3.65;;
42118;SDS011;27783;42.782;23.274;2023-08-20T08:23:31;5.75;;;4.10;;
42118;SDS011;27783;42.782;23.274;2023-08-20T08:25:57;4.40;;;3.40;;
42118;SDS011;27783;42.782;23.274;2023-08-20T08:28:22;9.25;;;3.22;;
42118;SDS011;27783;42.782;23.274;2023-08-20T08:30:49;3.55;;;3.22;;
42118;SDS011;27783;42.782;23.274;2023-08-20T08:33:16;4.40;;;3.95;;
42118;SDS011;27783;42.782;23.274;2023-08-20T08:35:47;4.03;;;3.67;;
42118;SDS011;27783;42.782;23.274;2023-08-20T08:38:14;5.65;;;3.63;;
42118;SDS011;27783;42.782;23.274;2023-08-20T08:40:41;5.32;;;3.72;;
42118;SDS011;27783;42.782;23.274;2023-08-20T08:43:09;5.93;;;3.80;;
42118;SDS011;27783;42.782;23.274;2023-08-20T08:45:44;3.65;;;3.15;;
42118;SDS011;27783;42.782;23.274;2023-08-20T08:48:14;4.40;;;3.40;;
42118;SDS011;27783;42.782;23.274;2023-08-20T08:51:02;3.08;;;2.88;;
42118;SDS011;27783;42.782;23.274;2023-08-20T08:53:27;3.83;;;3.08;;
42118;SDS011;27783;42.782;23.274;2023-08-20T08:55:54;5.38;;;2.95;;
42118;SDS011;27783;42.782;23.274;2023-08-20T08:58:34;3.80;;;3.50;;
42118;SDS011;27783;42.782;23.274;2023-08-20T09:03:35;4.00;;;3.60;;
42118;SDS011;27783;42.782;23.274;2023-08-20T09:06:05;3.83;;;3.50;;
42118;SDS011;27783;42.782;23.274;2023-08-20T09:08:42;2.72;;;2.50;;
42118;SDS011;27783;42.782;23.274;2023-08-20T09:11:08;4.22;;;3.50;;
42118;SDS011;27783;42.782;23.274;2023-08-20T09:13:38;3.60;;;2.88;;
42118;SDS011;27783;42.782;23.274;2023-08-20T09:16:06;6.15;;;3.05;;
42118;SDS011;27783;42.782;23.274;2023-08-20T09:18:38;3.15;;;2.85;;
42118;SDS011;27783;42.782;23.274;2023-08-20T09:21:13;2.80;;;2.47;;
42118;SDS011;27783;42.782;23.274;2023-08-20T09:23:39;3.47;;;2.60;;
42118;SDS011;27783;42.782;23.274;2023-08-20T09:26:06;4.00;;;2.55;;
42118;SDS011;27783;42.782;23.274;2023-08-20T09:28:43;2.60;;;2.40;;
42118;SDS011;27783;42.782;23.274;2023-08-20T09:31:13;3.03;;;2.38;;
42118;SDS011;27783;42.782;23.274;2023-08-20T09:33:53;2.65;;;2.45;;
42118;SDS011;27783;42.782;23.274;2023-08-20T09:36:38;4.32;;;2.65;;
42118;SDS011;27783;42.782;23.274;2023-08-20T09:39:03;3.65;;;2.50;;
42118;SDS011;27783;42.782;23.274;2023-08-20T09:41:30;3.60;;;2.55;;
42118;SDS011;27783;42.782;23.274;2023-08-20T09:43:58;2.95;;;2.65;;
42118;SDS011;27783;42.782;23.274;2023-08-20T09:46:25;2.88;;;2.67;;
42118;SDS011;27783;42.782;23.274;2023-08-20T09:48:55;3.00;;;2.40;;
42118;SDS011;27783;42.782;23.274;2023-08-20T09:51:26;4.68;;;2.75;;
42118;SDS011;27783;42.782;23.274;2023-08-20T09:56:53;2.72;;;2.53;;
42118;SDS011;27783;42.782;23.274;2023-08-20T09:59:23;2.88;;;2.42;;
42118;SDS011;27783;42.782;23.274;2023-08-20T10:01:49;5.72;;;3.10;;
42118;SDS011;27783;42.782;23.274;2023-08-20T10:04:15;3.58;;;3.13;;
42118;SDS011;27783;42.782;23.274;2023-08-20T10:06:44;3.80;;;2.72;;
42118;SDS011;27783;42.782;23.274;2023-08-20T10:09:10;3.35;;;3.05;;
42118;SDS011;27783;42.782;23.274;2023-08-20T10:11:36;4.47;;;3.08;;
42118;SDS011;27783;42.782;23.274;2023-08-20T10:14:06;2.92;;;2.50;;
42118;SDS011;27783;42.782;23.274;2023-08-20T10:19:03;2.17;;;2.00;;
42118;SDS011;27783;42.782;23.274;2023-08-20T10:21:31;3.95;;;2.15;;
42118;SDS011;27783;42.782;23.274;2023-08-20T10:23:57;4.07;;;2.30;;
42118;SDS011;27783;42.782;23.274;2023-08-20T10:26:29;4.07;;;2.13;;
42118;SDS011;27783;42.782;23.274;2023-08-20T10:29:34;3.50;;;2.20;;
42118;SDS011;27783;42.782;23.274;2023-08-20T10:31:58;2.17;;;1.95;;
42118;SDS011;27783;42.782;23.274;2023-08-20T10:34:31;2.42;;;1.88;;
42118;SDS011;27783;42.782;23.274;2023-08-20T10:37:01;3.95;;;2.15;;
42118;SDS011;27783;42.782;23.274;2023-08-20T10:39:40;5.22;;;2.25;;
42118;SDS011;27783;42.782;23.274;2023-08-20T10:45:07;2.00;;;1.80;;
42118;SDS011;27783;42.782;23.274;2023-08-20T10:50:11;2.05;;;1.85;;
42118;SDS011;27783;42.782;23.274;2023-08-20T10:52:41;1.83;;;1.70;;
42118;SDS011;27783;42.782;23.274;2023-08-20T10:55:15;2.55;;;1.60;;
42118;SDS011;27783;42.782;23.274;2023-08-20T10:57:42;1.73;;;1.55;;
42118;SDS011;27783;42.782;23.274;2023-08-20T11:00:22;2.00;;;1.50;;
42118;SDS011;27783;42.782;23.274;2023-08-20T11:02:49;2.08;;;1.85;;
42118;SDS011;27783;42.782;23.274;2023-08-20T11:05:21;2.55;;;1.75;;
42118;SDS011;27783;42.782;23.274;2023-08-20T11:07:48;2.35;;;2.15;;
42118;SDS011;27783;42.782;23.274;2023-08-20T11:10:14;2.00;;;1.90;;
42118;SDS011;27783;42.782;23.274;2023-08-20T11:12:47;2.22;;;1.70;;
42118;SDS011;27783;42.782;23.274;2023-08-20T11:15:15;1.80;;;1.70;;
42118;SDS011;27783;42.782;23.274;2023-08-20T11:17:47;1.60;;;1.50;;
42118;SDS011;27783;42.782;23.274;2023-08-20T11:20:28;2.33;;;1.40;;
42118;SDS011;27783;42.782;23.274;2023-08-20T11:22:55;2.25;;;1.98;;
42118;SDS011;27783;42.782;23.274;2023-08-20T11:25:23;1.60;;;1.50;;
42118;SDS011;27783;42.782;23.274;2023-08-20T11:27:48;3.13;;;1.77;;
42118;SDS011;27783;42.782;23.274;2023-08-20T11:30:17;2.80;;;1.63;;
42118;SDS011;27783;42.782;23.274;2023-08-20T11:32:43;1.98;;;1.77;;
42118;SDS011;27783;42.782;23.274;2023-08-20T11:35:11;1.77;;;1.63;;
42118;SDS011;27783;42.782;23.274;2023-08-20T11:37:39;3.17;;;2.40;;
42118;SDS011;27783;42.782;23.274;2023-08-20T11:40:08;1.92;;;1.80;;
42118;SDS011;27783;42.782;23.274;2023-08-20T11:42:35;4.07;;;1.80;;
42118;SDS011;27783;42.782;23.274;2023-08-20T11:45:01;2.30;;;1.92;;
42118;SDS011;27783;42.782;23.274;2023-08-20T11:47:28;3.13;;;2.20;;
42118;SDS011;27783;42.782;23.274;2023-08-20T11:50:04;3.40;;;2.00;;
42118;SDS011;27783;42.782;23.274;2023-08-20T11:52:33;2.90;;;2.10;;
42118;SDS011;27783;42.782;23.274;2023-08-20T11:55:04;2.20;;;1.95;;
42118;SDS011;27783;42.782;23.274;2023-08-20T11:57:33;2.50;;;2.30;;
42118;SDS011;27783;42.782;23.274;2023-08-20T12:00:04;2.40;;;1.88;;
42118;SDS011;27783;42.782;23.274;2023-08-20T12:02:34;2.55;;;2.10;;
42118;SDS011;27783;42.782;23.274;2023-08-20T12:05:01;4.40;;;2.40;;
42118;SDS011;27783;42.782;23.274;2023-08-20T12:07:29;3.10;;;2.40;;
42118;SDS011;27783;42.782;23.274;2023-08-20T12:12:23;2.53;;;1.92;;
42118;SDS011;27783;42.782;23.274;2023-08-20T12:15:03;2.78;;;1.90;;
42118;SDS011;27783;42.782;23.274;2023-08-20T12:17:28;2.55;;;1.55;;
42118;SDS011;27783;42.782;23.274;2023-08-20T12:19:54;2.35;;;2.15;;
42118;SDS011;27783;42.782;23.274;2023-08-20T12:22:21;4.93;;;2.22;;
42118;SDS011;27783;42.782;23.274;2023-08-20T12:24:48;2.53;;;2.33;;
42118;SDS011;27783;42.782;23.274;2023-08-20T12:27:18;2.30;;;1.75;;
42118;SDS011;27783;42.782;23.274;2023-08-20T12:29:45;2.10;;;1.90;;
42118;SDS011;27783;42.782;23.274;2023-08-20T12:32:14;2.90;;;1.80;;
42118;SDS011;27783;42.782;23.274;2023-08-20T12:34:39;4.65;;;1.90;;
42118;SDS011;27783;42.782;23.274;2023-08-20T12:37:05;1.90;;;1.40;;
42118;SDS011;27783;42.782;23.274;2023-08-20T12:39:31;5.13;;;4.63;;
42118;SDS011;27783;42.782;23.274;2023-08-20T12:41:56;27.35;;;25.02;;
42118;SDS011;27783;42.782;23.274;2023-08-20T12:44:23;2.08;;;1.73;;
42118;SDS011;27783;42.782;23.274;2023-08-20T12:46:50;1.75;;;1.65;;
42118;SDS011;27783;42.782;23.274;2023-08-20T12:49:16;1.85;;;1.48;;
42118;SDS011;27783;42.782;23.274;2023-08-20T12:51:43;2.35;;;1.48;;
42118;SDS011;27783;42.782;23.274;2023-08-20T12:54:31;3.88;;;2.17;;
42118;SDS011;27783;42.782;23.274;2023-08-20T12:56:57;2.70;;;1.77;;
42118;SDS011;27783;42.782;23.274;2023-08-20T13:01:50;1.47;;;1.37;;
42118;SDS011;27783;42.782;23.274;2023-08-20T13:04:17;4.38;;;1.75;;
42118;SDS011;27783;42.782;23.274;2023-08-20T13:06:43;2.40;;;1.40;;
42118;SDS011;27783;42.782;23.274;2023-08-20T13:09:10;1.33;;;1.23;;
42118;SDS011;27783;42.782;23.274;2023-08-20T13:11:37;2.08;;;1.88;;
42118;SDS011;27783;42.782;23.274;2023-08-20T13:14:04;2.45;;;1.50;;
42118;SDS011;27783;42.782;23.274;2023-08-20T13:16:32;2.03;;;1.83;;
42118;SDS011;27783;42.782;23.274;2023-08-20T13:19:00;2.20;;;1.67;;
42118;SDS011;27783;42.782;23.274;2023-08-20T13:21:26;4.40;;;1.90;;
42118;SDS011;27783;42.782;23.274;2023-08-20T13:23:52;3.15;;;1.85;;
42118;SDS011;27783;42.782;23.274;2023-08-20T13:26:19;1.35;;;1.25;;
42118;SDS011;27783;42.782;23.274;2023-08-20T13:28:48;2.63;;;1.75;;
42118;SDS011;27783;42.782;23.274;2023-08-20T13:31:14;2.70;;;1.80;;
42118;SDS011;27783;42.782;23.274;2023-08-20T13:33:44;2.88;;;1.85;;
42118;SDS011;27783;42.782;23.274;2023-08-20T13:36:13;1.70;;;1.60;;
42118;SDS011;27783;42.782;23.274;2023-08-20T13:41:06;2.03;;;1.80;;
42118;SDS011;27783;42.782;23.274;2023-08-20T13:43:31;4.22;;;1.52;;
42118;SDS011;27783;42.782;23.274;2023-08-20T13:45:57;1.92;;;1.38;;
42118;SDS011;27783;42.782;23.274;2023-08-20T13:48:23;1.80;;;1.50;;
42118;SDS011;27783;42.782;23.274;2023-08-20T13:50:50;2.45;;;1.98;;
42118;SDS011;27783;42.782;23.274;2023-08-20T13:53:18;2.47;;;2.15;;
42118;SDS011;27783;42.782;23.274;2023-08-20T13:55:44;2.47;;;2.03;;
42118;SDS011;27783;42.782;23.274;2023-08-20T13:58:10;2.50;;;2.03;;
42118;SDS011;27783;42.782;23.274;2023-08-20T14:00:38;3.92;;;1.90;;
42118;SDS011;27783;42.782;23.274;2023-08-20T14:03:11;2.60;;;2.05;;
42118;SDS011;27783;42.782;23.274;2023-08-20T14:05:37;2.20;;;2.00;;
42118;SDS011;27783;42.782;23.274;2023-08-20T14:08:03;4.55;;;1.98;;
42118;SDS011;27783;42.782;23.274;2023-08-20T14:10:30;1.92;;;1.83;;
42118;SDS011;27783;42.782;23.274;2023-08-20T14:12:55;1.90;;;1.80;;
42118;SDS011;27783;42.782;23.274;2023-08-20T14:15:22;2.40;;;2.20;;
42118;SDS011;27783;42.782;23.274;2023-08-20T14:17:48;4.47;;;2.25;;
42118;SDS011;27783;42.782;23.274;2023-08-20T14:20:14;4.38;;;1.83;;
42118;SDS011;27783;42.782;23.274;2023-08-20T14:22:40;2.55;;;2.28;;
42118;SDS011;27783;42.782;23.274;2023-08-20T14:25:08;2.42;;;2.17;;
42118;SDS011;27783;42.782;23.274;2023-08-20T14:27:36;3.35;;;2.72;;
42118;SDS011;27783;42.782;23.274;2023-08-20T14:30:04;4.20;;;2.50;;
42118;SDS011;27783;42.782;23.274;2023-08-20T14:32:33;8.35;;;4.05;;
42118;SDS011;27783;42.782;23.274;2023-08-20T14:34:59;3.15;;;2.40;;
42118;SDS011;27783;42.782;23.274;2023-08-20T14:37:24;3.90;;;2.80;;
42118;SDS011;27783;42.782;23.274;2023-08-20T14:39:51;6.05;;;2.70;;
42118;SDS011;27783;42.782;23.274;2023-08-20T14:42:17;5.60;;;3.70;;
42118;SDS011;27783;42.782;23.274;2023-08-20T14:44:45;8.50;;;3.42;;
42118;SDS011;27783;42.782;23.274;2023-08-20T14:47:10;5.13;;;3.08;;
42118;SDS011;27783;42.782;23.274;2023-08-20T14:49:36;3.38;;;3.10;;
42118;SDS011;27783;42.782;23.274;2023-08-20T14:52:04;4.07;;;3.00;;
42118;SDS011;27783;42.782;23.274;2023-08-20T14:54:32;4.78;;;2.67;;
42118;SDS011;27783;42.782;23.274;2023-08-20T14:57:00;3.45;;;2.75;;
42118;SDS011;27783;42.782;23.274;2023-08-20T14:59:28;2.58;;;2.38;;
42118;SDS011;27783;42.782;23.274;2023-08-20T15:01:55;3.33;;;2.40;;
42118;SDS011;27783;42.782;23.274;2023-08-20T15:04:22;3.75;;;2.75;;
42118;SDS011;27783;42.782;23.274;2023-08-20T15:06:48;5.47;;;2.47;;
42118;SDS011;27783;42.782;23.274;2023-08-20T15:09:15;3.10;;;2.50;;
42118;SDS011;27783;42.782;23.274;2023-08-20T15:11:41;3.17;;;2.42;;
42118;SDS011;27783;42.782;23.274;2023-08-20T15:14:07;5.40;;;2.55;;
42118;SDS011;27783;42.782;23.274;2023-08-20T15:16:35;4.38;;;2.95;;
42118;SDS011;27783;42.782;23.274;2023-08-20T15:19:02;4.25;;;2.80;;
42118;SDS011;27783;42.782;23.274;2023-08-20T15:21:29;3.40;;;2.43;;
42118;SDS011;27783;42.782;23.274;2023-08-20T15:23:56;3.95;;;2.20;;
42118;SDS011;27783;42.782;23.274;2023-08-20T15:26:25;3.53;;;2.60;;
42118;SDS011;27783;42.782;23.274;2023-08-20T15:28:51;6.03;;;2.53;;
42118;SDS011;27783;42.782;23.274;2023-08-20T15:31:17;2.88;;;2.60;;